createdAt,value
2022-08-26T00:01:29.805Z,23.80
2022-08-26T00:06:38.067Z,25.58
2022-08-26T00:12:12.470Z,23.00
2022-08-26T00:17:20.841Z,20.85
2022-08-26T00:22:29.787Z,19.50
2022-08-26T00:27:40.106Z,22.15
2022-08-26T00:32:44.321Z,20.85
2022-08-26T00:37:59.295Z,22.15
2022-08-26T00:43:09.753Z,22.58
2022-08-26T00:48:20.263Z,22.17
2022-08-26T00:53:32.627Z,22.15
2022-08-26T00:59:20.050Z,17.73
2022-08-26T01:04:26.096Z,18.88
2022-08-26T01:09:54.031Z,22.35
2022-08-26T01:15:14.092Z,23.23
2022-08-26T01:20:34.232Z,18.80
2022-08-26T01:26:04.948Z,18.70
2022-08-26T01:31:20.683Z,19.30
2022-08-26T01:36:25.917Z,20.40
2022-08-26T01:41:40.073Z,17.40
2022-08-26T01:46:59.147Z,18.45
2022-08-26T01:52:10.783Z,19.73
2022-08-26T01:57:30.763Z,15.35
2022-08-26T02:02:38.185Z,27.33
2022-08-26T02:07:45.186Z,24.60
2022-08-26T02:13:00.737Z,17.80
2022-08-26T02:18:08.944Z,18.70
2022-08-26T02:23:24.384Z,22.67
2022-08-26T02:28:50.070Z,23.08
2022-08-26T02:34:10.725Z,15.90
2022-08-26T02:39:33.234Z,20.38
2022-08-26T02:44:47.933Z,25.30
2022-08-26T02:49:54.978Z,24.13
2022-08-26T02:55:08.467Z,20.30
2022-08-26T03:00:53.154Z,19.40
2022-08-26T03:06:09.001Z,21.42
2022-08-26T03:11:16.205Z,19.73
2022-08-26T03:16:32.297Z,15.45
2022-08-26T03:21:43.426Z,20.63
2022-08-26T03:26:58.829Z,22.70
2022-08-26T03:32:11.491Z,21.60
2022-08-26T03:37:22.420Z,17.77
2022-08-26T03:42:29.071Z,18.10
2022-08-26T03:47:38.219Z,21.70
2022-08-26T03:52:48.234Z,19.08
2022-08-26T03:57:57.936Z,20.40
2022-08-26T04:03:15.658Z,17.92
2022-08-26T04:08:23.822Z,18.52
2022-08-26T04:13:36.148Z,22.75
2022-08-26T04:18:47.717Z,17.63
2022-08-26T04:23:52.872Z,18.95
2022-08-26T04:29:02.313Z,24.38
2022-08-26T04:34:17.663Z,22.05
2022-08-26T04:39:27.570Z,21.90
2022-08-26T04:44:34.077Z,21.77
2022-08-26T04:49:41.101Z,20.33
2022-08-26T04:54:47.202Z,18.05
2022-08-26T04:59:53.844Z,24.60
2022-08-26T05:05:09.148Z,20.13
2022-08-26T05:10:32.338Z,24.45
2022-08-26T05:15:37.976Z,22.77
2022-08-26T05:20:48.112Z,24.55
2022-08-26T05:25:59.274Z,24.23
2022-08-26T05:31:16.060Z,22.25
2022-08-26T05:36:32.034Z,29.05
2022-08-26T05:41:38.710Z,22.30
2022-08-26T05:46:46.166Z,21.75
2022-08-26T05:51:52.829Z,26.88
2022-08-26T05:56:57.596Z,26.15
2022-08-26T06:02:06.314Z,34.80
2022-08-26T06:07:17.076Z,26.48
2022-08-26T06:12:28.520Z,29.35
2022-08-26T06:18:00.809Z,26.35
2022-08-26T06:23:27.209Z,21.77
2022-08-26T06:28:36.153Z,24.90
2022-08-26T06:33:44.374Z,25.38
2022-08-26T06:38:55.321Z,25.83
2022-08-26T06:44:08.876Z,20.85
2022-08-26T06:49:18.189Z,23.45
2022-08-26T07:00:22.667Z,29.10
2022-08-26T07:05:45.399Z,24.55
2022-08-26T07:10:53.524Z,26.42
2022-08-26T07:16:09.698Z,24.65
2022-08-26T07:21:25.349Z,22.88
2022-08-26T07:26:33.125Z,24.83
2022-08-26T07:31:43.787Z,22.85
2022-08-26T07:36:56.218Z,22.20
2022-08-26T07:42:07.475Z,23.33
2022-08-26T07:47:24.913Z,23.05
2022-08-26T07:52:33.139Z,25.08
2022-08-26T07:57:43.635Z,24.45
2022-08-26T08:02:52.586Z,19.05
2022-08-26T08:08:26.875Z,19.67
2022-08-26T08:13:35.712Z,25.40
2022-08-26T08:18:47.171Z,21.10
2022-08-26T08:23:55.912Z,24.02
2022-08-26T08:29:06.950Z,16.13
2022-08-26T08:34:32.714Z,14.00
2022-08-26T08:39:39.637Z,18.67
2022-08-26T08:45:11.191Z,19.63
2022-08-26T08:50:34.668Z,20.17
2022-08-26T08:55:54.370Z,17.70
2022-08-26T09:01:20.224Z,16.95
2022-08-26T09:06:31.362Z,20.65
2022-08-26T09:11:44.805Z,19.40
2022-08-26T09:17:11.418Z,17.38
2022-08-26T09:22:35.187Z,19.95
2022-08-26T09:27:50.456Z,18.67
2022-08-26T09:33:10.063Z,18.92
2022-08-26T09:38:26.774Z,19.35
2022-08-26T09:43:32.696Z,21.65
2022-08-26T09:48:51.800Z,22.77
2022-08-26T09:54:08.014Z,16.23
2022-08-26T09:59:14.112Z,20.10
2022-08-26T10:04:31.085Z,18.13
2022-08-26T10:09:41.637Z,19.90
2022-08-26T10:14:52.575Z,17.25
2022-08-26T10:20:22.919Z,15.32
2022-08-26T10:25:34.350Z,18.15
2022-08-26T10:30:49.578Z,22.15
2022-08-26T10:36:03.523Z,21.85
2022-08-26T10:41:20.008Z,15.52
2022-08-26T10:46:44.826Z,16.63
2022-08-26T10:52:00.452Z,18.75
2022-08-26T10:57:19.447Z,19.48
2022-08-26T11:02:37.798Z,21.58
2022-08-26T11:07:52.060Z,16.95
2022-08-26T11:13:04.050Z,20.92
2022-08-26T11:18:14.597Z,20.35
2022-08-26T11:23:50.733Z,13.23
2022-08-26T11:29:05.081Z,16.17
2022-08-26T11:34:21.255Z,15.05
2022-08-26T11:39:31.921Z,13.88
2022-08-26T11:44:49.279Z,15.85
2022-08-26T11:50:09.731Z,13.80
2022-08-26T11:55:23.241Z,13.55
2022-08-26T12:00:33.829Z,10.75
2022-08-26T12:05:53.370Z,19.25
2022-08-26T12:11:30.616Z,11.68
2022-08-26T12:22:50.695Z,11.65
2022-08-26T12:28:06.491Z,15.63
2022-08-26T12:33:22.840Z,11.55
2022-08-26T12:38:43.799Z,20.40
2022-08-26T12:44:08.847Z,14.02
2022-08-26T12:49:27.648Z,15.95
2022-08-26T12:54:57.028Z,12.48
2022-08-26T13:00:33.244Z,19.88
2022-08-26T13:05:42.638Z,21.00
2022-08-26T13:11:05.356Z,18.38
2022-08-26T13:16:16.871Z,18.88
2022-08-26T13:21:37.396Z,14.50
2022-08-26T13:26:47.698Z,16.52
2022-08-26T13:31:54.299Z,23.13
2022-08-26T13:37:29.325Z,20.85
2022-08-26T13:42:52.812Z,18.67
2022-08-26T13:48:05.187Z,14.40
2022-08-26T13:53:17.162Z,13.32
2022-08-26T13:58:21.331Z,13.20
2022-08-26T14:03:32.484Z,18.52
2022-08-26T14:08:49.361Z,21.45
2022-08-26T14:13:56.766Z,15.07
2022-08-26T14:19:15.499Z,22.30
2022-08-26T14:24:25.284Z,14.52
2022-08-26T14:29:38.754Z,16.13
2022-08-26T14:34:45.725Z,15.90
2022-08-26T14:39:55.472Z,15.57
2022-08-26T14:45:16.124Z,11.45
2022-08-26T14:50:29.014Z,10.65
2022-08-26T14:55:39.138Z,11.13
2022-08-26T15:00:45.470Z,11.43
2022-08-26T15:11:30.530Z,11.05
2022-08-26T15:16:38.183Z,10.52
2022-08-26T15:22:03.639Z,14.32
2022-08-26T15:32:34.743Z,8.93
2022-08-26T15:37:42.080Z,8.27
2022-08-26T15:42:54.337Z,10.75
2022-08-26T15:48:06.388Z,13.00
2022-08-26T15:53:31.035Z,9.98
2022-08-26T15:59:07.205Z,8.48
2022-08-26T16:04:34.408Z,7.68
2022-08-26T16:09:45.440Z,10.05
2022-08-26T16:15:01.628Z,7.00
2022-08-26T16:20:08.882Z,7.45
2022-08-26T16:25:20.055Z,6.68
2022-08-26T16:36:01.464Z,7.75
2022-08-26T16:41:11.391Z,8.45
2022-08-26T16:46:26.031Z,7.65
2022-08-26T16:51:36.552Z,9.63
2022-08-26T16:56:56.564Z,8.05
2022-08-26T17:02:01.826Z,7.68
2022-08-26T17:07:07.244Z,8.02
2022-08-26T17:12:20.788Z,9.10
2022-08-26T17:17:28.328Z,7.15
2022-08-26T17:22:40.760Z,8.00
2022-08-26T17:27:57.560Z,12.07
2022-08-26T17:33:10.607Z,8.23
2022-08-26T17:38:24.862Z,8.05
2022-08-26T17:43:38.242Z,12.80
2022-08-26T17:48:50.665Z,10.90
2022-08-26T17:54:00.912Z,8.93
2022-08-26T17:59:18.656Z,9.30
2022-08-26T18:04:24.173Z,8.38
2022-08-26T18:09:36.592Z,9.20
2022-08-26T18:14:57.276Z,5.88
2022-08-26T18:20:18.500Z,7.57
2022-08-26T18:25:32.383Z,8.38
2022-08-26T18:30:47.101Z,8.27
2022-08-26T18:41:15.588Z,10.00
2022-08-26T18:46:41.146Z,11.20
2022-08-26T18:51:48.104Z,8.70
2022-08-26T18:56:57.361Z,9.30
2022-08-26T19:02:07.666Z,15.73
2022-08-26T19:07:12.076Z,9.70
2022-08-26T19:12:21.758Z,8.57
2022-08-26T19:17:28.011Z,11.38
2022-08-26T19:22:34.905Z,8.40
2022-08-26T19:27:46.664Z,14.38
2022-08-26T19:32:57.497Z,12.00
2022-08-26T19:38:07.544Z,10.88
2022-08-26T19:43:21.530Z,13.43
2022-08-26T19:48:32.424Z,9.00
2022-08-26T19:53:40.039Z,11.05
2022-08-26T19:58:53.229Z,9.65
2022-08-26T20:04:05.264Z,11.68
2022-08-26T20:09:14.685Z,9.45
2022-08-26T20:14:23.083Z,14.90
2022-08-26T20:19:45.126Z,9.52
2022-08-26T20:24:57.657Z,8.10
2022-08-26T20:30:05.186Z,10.55
2022-08-26T20:35:21.914Z,11.98
2022-08-26T20:40:47.324Z,10.45
2022-08-26T20:45:58.903Z,11.85
2022-08-26T20:51:22.775Z,8.35
2022-08-26T20:56:33.099Z,10.18
2022-08-26T21:01:42.645Z,8.38
2022-08-26T21:12:24.219Z,7.13
2022-08-26T21:17:33.967Z,6.20
2022-08-26T21:22:47.113Z,9.07
2022-08-26T21:28:22.274Z,9.75
2022-08-26T21:39:27.915Z,9.45
2022-08-26T21:44:34.180Z,8.13
2022-08-26T21:49:45.082Z,10.68
2022-08-26T21:55:11.783Z,9.00
2022-08-26T22:00:28.817Z,11.00
2022-08-26T22:05:57.237Z,9.90
2022-08-26T22:11:27.073Z,13.15
2022-08-26T22:16:37.043Z,9.60
2022-08-26T22:21:49.058Z,11.18
2022-08-26T22:27:01.072Z,9.35
2022-08-26T22:32:24.047Z,9.30
2022-08-26T22:37:35.252Z,8.93
2022-08-26T22:42:55.437Z,9.98
2022-08-26T22:48:05.130Z,8.82
2022-08-26T22:53:18.497Z,7.40
2022-08-26T22:58:33.677Z,8.52
2022-08-26T23:03:57.727Z,8.73
2022-08-26T23:09:09.938Z,6.95
2022-08-26T23:14:19.980Z,7.75
2022-08-26T23:19:29.698Z,13.15
2022-08-26T23:24:54.872Z,7.20
2022-08-26T23:30:30.837Z,7.10
2022-08-26T23:35:48.314Z,9.25
2022-08-26T23:41:03.712Z,10.52
2022-08-26T23:46:25.182Z,9.32
2022-08-26T23:51:46.945Z,9.63
2022-08-26T23:56:55.476Z,8.73
